createdAt,value
2022-08-03T00:00:35.036Z,19.69
2022-08-03T00:01:35.033Z,19.68
2022-08-03T00:02:35.078Z,19.68
2022-08-03T00:03:35.027Z,19.66
2022-08-03T00:04:34.990Z,19.66
2022-08-03T00:05:34.976Z,19.65
2022-08-03T00:06:37.118Z,19.65
2022-08-03T00:07:34.956Z,19.63
2022-08-03T00:08:40.178Z,19.63
2022-08-03T00:09:36.080Z,19.62
2022-08-03T00:10:34.913Z,19.62
2022-08-03T00:11:34.905Z,19.62
2022-08-03T00:12:34.883Z,19.59
2022-08-03T00:13:34.905Z,19.59
2022-08-03T00:14:34.856Z,19.56
2022-08-03T00:15:34.846Z,19.55
2022-08-03T00:16:34.826Z,19.54
2022-08-03T00:17:52.588Z,19.54
2022-08-03T00:18:35.825Z,19.54
2022-08-03T00:19:34.794Z,19.54
2022-08-03T00:20:34.775Z,19.51
2022-08-03T00:21:34.767Z,19.50
2022-08-03T00:22:34.756Z,19.48
2022-08-03T00:23:51.904Z,19.48
2022-08-03T00:24:35.743Z,19.48
2022-08-03T00:25:34.724Z,19.47
2022-08-03T00:26:34.702Z,19.47
2022-08-03T00:27:34.695Z,19.47
2022-08-03T00:28:34.674Z,19.47
2022-08-03T00:29:34.677Z,19.46
2022-08-03T00:30:35.644Z,19.46
2022-08-03T00:31:45.040Z,19.44
2022-08-03T00:32:35.641Z,19.43
2022-08-03T00:33:59.188Z,19.41
2022-08-03T00:34:57.266Z,19.40
2022-08-03T00:35:42.628Z,19.41
2022-08-03T00:36:35.564Z,19.40
2022-08-03T00:37:40.822Z,19.39
2022-08-03T00:38:35.542Z,19.40
2022-08-03T00:39:34.534Z,19.39
2022-08-03T00:40:34.532Z,19.40
2022-08-03T00:41:34.514Z,19.39
2022-08-03T00:42:34.494Z,19.40
2022-08-03T00:43:34.484Z,19.36
2022-08-03T00:44:34.477Z,19.37
2022-08-03T00:45:34.472Z,19.37
2022-08-03T00:46:34.433Z,19.33
2022-08-03T00:47:34.432Z,19.33
2022-08-03T00:48:34.416Z,19.33
2022-08-03T00:49:34.465Z,19.32
2022-08-03T00:50:34.407Z,19.32
2022-08-03T00:51:34.372Z,19.31
2022-08-03T00:52:34.389Z,19.29
2022-08-03T00:53:34.353Z,19.28
2022-08-03T00:54:34.334Z,19.29
2022-08-03T00:55:34.324Z,19.28
2022-08-03T00:56:34.322Z,19.26
2022-08-03T00:57:34.302Z,19.26
2022-08-03T00:58:34.285Z,19.25
2022-08-03T00:59:34.272Z,19.23
2022-08-03T01:00:34.262Z,19.22
2022-08-03T01:01:34.330Z,19.21
2022-08-03T01:02:34.234Z,19.21
2022-08-03T01:03:34.221Z,19.19
2022-08-03T01:04:34.201Z,19.18
2022-08-03T01:05:34.221Z,19.18
2022-08-03T01:06:34.181Z,19.19
2022-08-03T01:07:34.189Z,19.18
2022-08-03T01:08:34.161Z,19.14
2022-08-03T01:09:34.150Z,19.13
2022-08-03T01:10:34.141Z,19.11
2022-08-03T01:11:34.111Z,19.10
2022-08-03T01:12:34.113Z,19.08
2022-08-03T01:14:04.351Z,19.07
2022-08-03T01:14:35.081Z,19.04
2022-08-03T01:15:34.061Z,19.04
2022-08-03T01:16:37.091Z,19.02
2022-08-03T01:17:34.062Z,19.02
2022-08-03T01:18:34.034Z,19.00
2022-08-03T01:19:34.051Z,18.99
2022-08-03T01:20:34.000Z,18.99
2022-08-03T01:21:33.993Z,18.98
2022-08-03T01:22:33.982Z,18.95
2022-08-03T01:23:33.980Z,18.95
2022-08-03T01:24:33.941Z,18.95
2022-08-03T01:25:33.939Z,18.95
2022-08-03T01:26:33.922Z,18.98
2022-08-03T01:27:33.910Z,18.94
2022-08-03T01:28:33.913Z,18.94
2022-08-03T01:29:33.881Z,18.92
2022-08-03T01:30:33.870Z,18.92
2022-08-03T01:31:33.890Z,18.90
2022-08-03T01:32:58.411Z,18.90
2022-08-03T01:33:34.842Z,18.88
2022-08-03T01:34:33.809Z,18.88
2022-08-03T01:35:35.491Z,18.88
2022-08-03T01:36:34.781Z,18.88
2022-08-03T01:37:33.779Z,18.87
2022-08-03T01:38:33.759Z,18.87
2022-08-03T01:39:33.760Z,18.85
2022-08-03T01:40:33.729Z,18.84
2022-08-03T01:41:33.719Z,18.84
2022-08-03T01:42:33.713Z,18.84
2022-08-03T01:43:55.357Z,18.82
2022-08-03T01:44:34.696Z,18.82
2022-08-03T01:45:34.021Z,18.82
2022-08-03T01:46:33.649Z,18.82
2022-08-03T01:47:33.651Z,18.82
2022-08-03T01:48:33.628Z,18.81
2022-08-03T01:49:33.709Z,18.81
2022-08-03T01:50:33.598Z,18.81
2022-08-03T01:51:45.068Z,18.82
2022-08-03T01:52:34.578Z,18.81
2022-08-03T01:53:33.572Z,18.81
2022-08-03T01:54:33.568Z,18.81
2022-08-03T01:55:33.547Z,18.80
2022-08-03T01:56:33.547Z,18.78
2022-08-03T01:57:33.528Z,18.78
2022-08-03T01:58:34.497Z,18.76
2022-08-03T01:59:33.507Z,18.76
2022-08-03T02:00:33.478Z,18.73
2022-08-03T02:02:29.184Z,18.72
2022-08-03T02:02:34.830Z,18.72
2022-08-03T02:03:33.437Z,18.70
2022-08-03T02:04:33.428Z,18.70
2022-08-03T02:05:33.405Z,18.70
2022-08-03T02:07:01.507Z,18.69
2022-08-03T02:07:34.386Z,18.70
2022-08-03T02:08:33.367Z,18.69
2022-08-03T02:09:33.372Z,18.69
2022-08-03T02:10:34.621Z,18.69
2022-08-03T02:11:33.336Z,18.67
2022-08-03T02:12:33.316Z,18.67
2022-08-03T02:13:33.306Z,18.67
2022-08-03T02:14:33.296Z,18.65
2022-08-03T02:15:33.283Z,18.65
2022-08-03T02:16:33.267Z,18.65
2022-08-03T02:17:33.245Z,18.63
2022-08-03T02:18:34.235Z,18.65
2022-08-03T02:19:35.790Z,18.62
2022-08-03T02:20:33.251Z,18.62
2022-08-03T02:21:55.646Z,18.60
2022-08-03T02:22:34.175Z,18.58
2022-08-03T02:23:33.175Z,18.58
2022-08-03T02:24:33.366Z,18.58
2022-08-03T02:25:33.978Z,18.58
2022-08-03T02:26:33.124Z,18.57
2022-08-03T02:27:33.114Z,18.55
2022-08-03T02:28:33.104Z,18.57
2022-08-03T02:29:39.102Z,18.57
2022-08-03T02:30:34.163Z,18.55
2022-08-03T02:31:33.062Z,18.57
2022-08-03T02:32:33.054Z,18.54
2022-08-03T02:33:33.033Z,18.55
2022-08-03T02:34:33.103Z,18.54
2022-08-03T02:35:33.010Z,18.51
2022-08-03T02:36:32.993Z,18.52
2022-08-03T02:37:33.012Z,18.52
2022-08-03T02:38:32.972Z,18.51
2022-08-03T02:39:32.971Z,18.48
2022-08-03T02:40:32.943Z,18.50
2022-08-03T02:41:32.942Z,18.48
2022-08-03T02:42:32.913Z,18.48
2022-08-03T02:43:39.200Z,18.48
2022-08-03T02:44:33.903Z,18.45
2022-08-03T02:45:32.882Z,18.48
2022-08-03T02:46:32.862Z,18.48
2022-08-03T02:47:53.409Z,18.47
2022-08-03T02:48:33.843Z,18.45
2022-08-03T02:49:50.849Z,18.45
2022-08-03T02:50:33.812Z,18.45
2022-08-03T02:51:32.802Z,18.44
2022-08-03T02:52:32.801Z,18.42
2022-08-03T02:53:32.775Z,18.42
2022-08-03T02:54:32.942Z,18.41
2022-08-03T02:55:32.750Z,18.42
2022-08-03T02:56:32.732Z,18.42
2022-08-03T02:57:32.720Z,18.39
2022-08-03T02:58:32.721Z,18.39
2022-08-03T02:59:32.711Z,18.37
2022-08-03T03:00:32.754Z,18.36
2022-08-03T03:01:32.812Z,18.36
2022-08-03T03:02:32.670Z,18.35
2022-08-03T03:03:41.812Z,18.33
2022-08-03T03:04:33.643Z,18.33
2022-08-03T03:05:52.491Z,18.30
2022-08-03T03:06:33.610Z,18.32
2022-08-03T03:07:45.444Z,18.30
2022-08-03T03:08:33.580Z,18.29
2022-08-03T03:09:41.792Z,18.27
2022-08-03T03:10:33.561Z,18.27
2022-08-03T03:11:32.539Z,18.26
2022-08-03T03:12:32.530Z,18.26
2022-08-03T03:13:32.509Z,18.27
2022-08-03T03:14:33.258Z,18.26
2022-08-03T03:15:32.479Z,18.25
2022-08-03T03:16:32.470Z,18.26
2022-08-03T03:17:32.468Z,18.26
2022-08-03T03:18:32.453Z,18.26
2022-08-03T03:19:32.448Z,18.26
2022-08-03T03:20:32.428Z,18.25
2022-08-03T03:21:32.417Z,18.25
2022-08-03T03:22:32.458Z,18.26
2022-08-03T03:23:32.398Z,18.25
2022-08-03T03:24:32.389Z,18.23
2022-08-03T03:25:32.358Z,18.23
2022-08-03T03:26:32.348Z,18.21
2022-08-03T03:27:32.328Z,18.21
2022-08-03T03:28:32.318Z,18.21
2022-08-03T03:29:32.320Z,18.18
2022-08-03T03:30:33.299Z,18.20
2022-08-03T03:31:32.278Z,18.20
2022-08-03T03:32:32.273Z,18.20
2022-08-03T03:33:32.247Z,18.20
2022-08-03T03:34:32.341Z,18.21
2022-08-03T03:35:38.935Z,18.20
2022-08-03T03:36:33.217Z,18.21
2022-08-03T03:37:32.199Z,18.20
2022-08-03T03:38:32.198Z,18.18
2022-08-03T03:39:32.177Z,18.18
2022-08-03T03:40:32.168Z,18.17
2022-08-03T03:41:33.937Z,18.17
2022-08-03T03:42:32.136Z,18.14
2022-08-03T03:43:32.119Z,18.15
2022-08-03T03:44:32.151Z,18.14
2022-08-03T03:45:32.096Z,18.15
2022-08-03T03:46:32.091Z,18.14
2022-08-03T03:47:32.254Z,18.12
2022-08-03T03:48:32.247Z,18.11
2022-08-03T03:49:32.108Z,18.11
2022-08-03T03:50:32.062Z,18.11
2022-08-03T03:51:32.015Z,18.10
2022-08-03T03:52:32.013Z,18.10
2022-08-03T03:53:32.944Z,18.08
2022-08-03T03:54:31.996Z,18.08
2022-08-03T03:55:31.967Z,18.08
2022-08-03T03:56:31.955Z,18.08
2022-08-03T03:57:31.936Z,18.05
2022-08-03T03:58:31.937Z,18.05
2022-08-03T03:59:31.924Z,18.05
2022-08-03T04:00:31.963Z,18.02
2022-08-03T04:01:31.886Z,18.02
2022-08-03T04:02:31.873Z,18.02
2022-08-03T04:03:31.863Z,18.02
2022-08-03T04:04:31.867Z,18.00
2022-08-03T04:05:31.834Z,18.00
2022-08-03T04:06:31.833Z,17.97
2022-08-03T04:07:31.804Z,17.99
2022-08-03T04:08:31.804Z,17.97
2022-08-03T04:09:31.784Z,17.96
2022-08-03T04:10:31.776Z,17.96
2022-08-03T04:11:31.982Z,17.96
2022-08-03T04:12:31.753Z,17.96
2022-08-03T04:13:31.733Z,17.96
2022-08-03T04:14:31.724Z,17.97
2022-08-03T04:15:31.703Z,17.97
2022-08-03T04:16:31.695Z,17.96
2022-08-03T04:17:31.683Z,17.96
2022-08-03T04:18:31.668Z,17.96
2022-08-03T04:19:31.662Z,17.96
2022-08-03T04:20:31.643Z,17.96
2022-08-03T04:21:31.622Z,17.97
2022-08-03T04:22:31.623Z,17.96
2022-08-03T04:23:31.596Z,17.95
2022-08-03T04:24:31.645Z,17.93
2022-08-03T04:25:31.573Z,17.93
2022-08-03T04:26:31.557Z,17.93
2022-08-03T04:27:31.543Z,17.95
2022-08-03T04:28:32.088Z,17.93
2022-08-03T04:29:31.538Z,17.95
2022-08-03T04:30:32.252Z,17.95
2022-08-03T04:31:31.493Z,17.93
2022-08-03T04:32:31.493Z,17.93
2022-08-03T04:33:31.474Z,17.93
2022-08-03T04:34:31.473Z,17.92
2022-08-03T04:35:58.568Z,17.93
2022-08-03T04:36:32.432Z,17.92
2022-08-03T04:37:31.411Z,17.92
2022-08-03T04:38:31.411Z,17.92
2022-08-03T04:39:31.400Z,17.93
2022-08-03T04:40:31.381Z,17.96
2022-08-03T04:41:31.373Z,17.96
2022-08-03T04:42:31.362Z,17.97
2022-08-03T04:43:31.342Z,17.97
2022-08-03T04:44:31.340Z,17.99
2022-08-03T04:45:31.313Z,17.99
2022-08-03T04:46:31.312Z,17.97
2022-08-03T04:47:31.280Z,17.97
2022-08-03T04:48:31.271Z,17.99
2022-08-03T04:49:31.345Z,17.99
2022-08-03T04:50:31.251Z,18.00
2022-08-03T04:51:31.241Z,18.02
2022-08-03T04:52:31.222Z,18.03
2022-08-03T04:53:31.200Z,18.02
2022-08-03T04:54:31.201Z,18.03
2022-08-03T04:55:31.180Z,18.07
2022-08-03T04:56:31.170Z,18.05
2022-08-03T04:57:31.921Z,18.07
2022-08-03T04:58:31.150Z,18.08
2022-08-03T04:59:31.140Z,18.11
2022-08-03T05:00:31.113Z,18.10
2022-08-03T05:01:31.164Z,18.11
2022-08-03T05:02:31.126Z,18.11
2022-08-03T05:03:31.080Z,18.12
2022-08-03T05:04:31.078Z,18.14
2022-08-03T05:05:49.613Z,18.17
2022-08-03T05:06:32.040Z,18.17
2022-08-03T05:07:36.272Z,18.20
2022-08-03T05:08:32.019Z,18.21
2022-08-03T05:09:50.143Z,18.21
2022-08-03T05:10:31.989Z,18.23
2022-08-03T05:11:30.968Z,18.25
2022-08-03T05:12:33.904Z,18.27
2022-08-03T05:13:30.948Z,18.29
2022-08-03T05:14:31.068Z,18.30
2022-08-03T05:15:30.919Z,18.33
2022-08-03T05:16:30.909Z,18.36
2022-08-03T05:17:30.889Z,18.37
2022-08-03T05:18:30.889Z,18.42
2022-08-03T05:19:30.996Z,18.45
2022-08-03T05:20:30.857Z,18.47
2022-08-03T05:21:52.087Z,18.51
2022-08-03T05:22:31.838Z,18.54
2022-08-03T05:23:30.823Z,18.54
2022-08-03T05:24:30.828Z,18.57
2022-08-03T05:25:30.787Z,18.60
2022-08-03T05:26:30.884Z,18.65
2022-08-03T05:27:30.757Z,18.69
2022-08-03T05:28:30.762Z,18.75
2022-08-03T05:29:30.747Z,18.81
2022-08-03T05:30:34.414Z,18.85
2022-08-03T05:31:30.710Z,18.88
2022-08-03T05:32:30.709Z,18.94
2022-08-03T05:33:30.687Z,19.00
2022-08-03T05:34:30.688Z,19.06
2022-08-03T05:35:56.811Z,19.08
2022-08-03T05:36:31.648Z,19.14
2022-08-03T05:37:30.638Z,19.22
2022-08-03T05:38:34.018Z,19.31
2022-08-03T05:39:30.629Z,19.40
2022-08-03T05:40:30.603Z,19.46
2022-08-03T05:41:37.112Z,19.50
2022-08-03T05:42:31.576Z,19.58
2022-08-03T05:43:30.558Z,19.61
2022-08-03T05:44:30.663Z,19.66
2022-08-03T05:45:30.536Z,19.74
2022-08-03T05:46:30.526Z,19.84
2022-08-03T05:47:30.505Z,19.95
2022-08-03T05:48:30.487Z,20.03
2022-08-03T05:49:30.548Z,20.11
2022-08-03T05:50:30.456Z,20.16
2022-08-03T05:51:30.457Z,20.21
2022-08-03T05:52:30.438Z,20.28
2022-08-03T05:53:30.434Z,20.33
2022-08-03T05:54:57.010Z,20.38
2022-08-03T05:55:31.413Z,20.47
2022-08-03T05:56:30.386Z,20.51
2022-08-03T05:57:30.377Z,20.62
2022-08-03T05:58:30.365Z,20.69
2022-08-03T05:59:38.619Z,20.73
2022-08-03T06:00:31.345Z,20.80
2022-08-03T06:01:30.392Z,20.85
2022-08-03T06:02:30.306Z,20.87
2022-08-03T06:03:30.305Z,20.91
2022-08-03T06:04:30.279Z,20.99
2022-08-03T06:05:30.284Z,21.07
2022-08-03T06:06:32.282Z,21.12
2022-08-03T06:07:30.244Z,21.19
2022-08-03T06:08:30.226Z,21.24
2022-08-03T06:09:56.630Z,21.31
2022-08-03T06:10:36.387Z,21.35
2022-08-03T06:11:31.192Z,21.42
2022-08-03T06:12:30.174Z,21.49
2022-08-03T06:13:30.157Z,21.52
2022-08-03T06:14:30.224Z,21.56
2022-08-03T06:15:30.154Z,21.64
2022-08-03T06:16:30.114Z,21.67
2022-08-03T06:17:30.113Z,21.69
2022-08-03T06:18:31.095Z,21.74
2022-08-03T06:19:30.084Z,21.82
2022-08-03T06:20:30.087Z,21.86
2022-08-03T06:21:30.064Z,21.91
2022-08-03T06:22:30.043Z,21.99
2022-08-03T06:23:53.851Z,22.06
2022-08-03T06:24:31.013Z,22.12
2022-08-03T06:25:30.015Z,22.18
2022-08-03T06:26:29.998Z,22.24
2022-08-03T06:27:37.199Z,22.30
2022-08-03T06:28:51.903Z,22.33
2022-08-03T06:29:30.958Z,22.40
2022-08-03T06:30:29.952Z,22.47
2022-08-03T06:31:32.872Z,22.54
2022-08-03T06:32:29.912Z,22.58
2022-08-03T06:34:30.166Z,22.61
2022-08-03T06:34:35.682Z,22.70
2022-08-03T06:35:30.893Z,22.75
2022-08-03T06:36:29.865Z,22.80
2022-08-03T06:37:29.859Z,22.85
2022-08-03T06:38:29.842Z,22.86
2022-08-03T06:39:30.004Z,22.92
2022-08-03T06:40:29.953Z,22.97
2022-08-03T06:41:29.825Z,23.01
2022-08-03T06:42:30.783Z,23.07
2022-08-03T06:43:29.773Z,23.13
2022-08-03T06:44:30.752Z,23.17
2022-08-03T06:45:32.134Z,23.25
2022-08-03T06:46:29.733Z,23.31
2022-08-03T06:47:29.722Z,23.35
2022-08-03T06:48:29.703Z,23.39
2022-08-03T06:49:29.777Z,23.46
2022-08-03T06:50:29.693Z,23.48
2022-08-03T06:52:03.080Z,23.55
2022-08-03T06:52:37.567Z,23.58
2022-08-03T06:53:30.652Z,23.65
2022-08-03T06:54:32.912Z,23.68
2022-08-03T06:55:29.646Z,23.73
2022-08-03T06:56:29.602Z,23.79
2022-08-03T06:57:29.583Z,23.85
2022-08-03T06:58:29.587Z,23.93
2022-08-03T07:00:06.300Z,23.98
2022-08-03T07:00:30.562Z,24.03
2022-08-03T07:01:29.629Z,24.08
2022-08-03T07:02:29.528Z,24.13
2022-08-03T07:03:29.501Z,24.20
2022-08-03T07:04:29.566Z,24.25
2022-08-03T07:05:29.501Z,24.30
2022-08-03T07:06:29.472Z,24.39
2022-08-03T07:07:29.451Z,24.43
2022-08-03T07:08:33.944Z,24.50
2022-08-03T07:09:30.427Z,24.58
2022-08-03T07:10:29.441Z,24.65
2022-08-03T07:11:29.402Z,24.76
2022-08-03T07:12:29.402Z,24.80
2022-08-03T07:13:29.381Z,24.84
2022-08-03T07:14:29.369Z,24.90
2022-08-03T07:15:55.061Z,24.98
2022-08-03T07:16:30.341Z,25.02
2022-08-03T07:17:29.324Z,25.06
2022-08-03T07:18:29.938Z,25.13
2022-08-03T07:19:29.300Z,25.18
2022-08-03T07:20:32.504Z,25.24
2022-08-03T07:21:29.273Z,25.32
2022-08-03T07:22:29.260Z,25.40
2022-08-03T07:23:29.252Z,25.45
2022-08-03T07:24:29.701Z,25.47
2022-08-03T07:25:29.231Z,25.52
2022-08-03T07:26:29.211Z,25.57
2022-08-03T07:27:29.199Z,25.62
2022-08-03T07:28:29.190Z,25.70
2022-08-03T07:29:29.166Z,25.76
2022-08-03T07:30:30.181Z,25.80
2022-08-03T07:31:29.141Z,25.88
2022-08-03T07:32:30.140Z,25.94
2022-08-03T07:33:29.119Z,26.01
2022-08-03T07:34:29.120Z,26.07
2022-08-03T07:35:29.100Z,26.13
2022-08-03T07:36:29.081Z,26.13
2022-08-03T07:37:29.074Z,26.15
2022-08-03T07:38:29.050Z,26.17
2022-08-03T07:39:29.041Z,26.20
2022-08-03T07:40:31.836Z,26.25
2022-08-03T07:41:29.009Z,26.29
2022-08-03T07:42:29.009Z,26.39
2022-08-03T07:43:28.991Z,26.47
2022-08-03T07:44:28.982Z,26.54
2022-08-03T07:45:28.980Z,26.65
2022-08-03T07:46:28.943Z,26.72
2022-08-03T07:47:35.405Z,26.77
2022-08-03T07:48:29.931Z,26.84
2022-08-03T07:49:28.946Z,26.88
2022-08-03T07:50:28.904Z,26.92
2022-08-03T07:51:28.879Z,26.99
2022-08-03T07:52:28.872Z,27.09
2022-08-03T07:53:28.859Z,27.18
2022-08-03T07:54:28.859Z,27.27
2022-08-03T07:55:28.842Z,27.29
2022-08-03T07:56:28.818Z,27.37
2022-08-03T07:57:28.808Z,27.43
2022-08-03T07:58:28.800Z,27.47
2022-08-03T07:59:28.781Z,27.51
2022-08-03T08:00:29.776Z,27.54
2022-08-03T08:01:28.816Z,27.62
2022-08-03T08:02:28.740Z,27.72
2022-08-03T08:03:28.719Z,27.75
2022-08-03T08:04:29.719Z,27.82
2022-08-03T08:05:28.711Z,27.92
2022-08-03T08:06:28.715Z,28.04
2022-08-03T08:07:28.671Z,28.15
2022-08-03T08:08:28.669Z,28.24
2022-08-03T08:09:28.649Z,28.27
2022-08-03T08:10:28.647Z,28.25
2022-08-03T08:11:28.621Z,28.29
2022-08-03T08:12:28.617Z,28.33
2022-08-03T08:13:28.590Z,28.37
2022-08-03T08:14:28.597Z,28.44
2022-08-03T08:15:28.581Z,28.51
2022-08-03T08:16:28.558Z,28.56
2022-08-03T08:17:28.538Z,28.64
2022-08-03T08:18:28.529Z,28.76
2022-08-03T08:19:28.509Z,28.86
2022-08-03T08:20:31.268Z,28.98
2022-08-03T08:21:54.073Z,29.00
2022-08-03T08:22:30.468Z,28.93
2022-08-03T08:23:43.112Z,28.98
2022-08-03T08:24:29.452Z,29.05
2022-08-03T08:25:28.449Z,29.11
2022-08-03T08:26:28.437Z,29.15
2022-08-03T08:27:28.409Z,29.21
2022-08-03T08:28:33.486Z,29.30
2022-08-03T08:29:28.386Z,29.28
2022-08-03T08:30:28.388Z,29.19
2022-08-03T08:31:28.358Z,29.14
2022-08-03T08:32:28.358Z,29.16
2022-08-03T08:33:37.659Z,29.21
2022-08-03T08:34:29.330Z,29.26
2022-08-03T08:35:28.318Z,29.33
2022-08-03T08:36:28.305Z,29.39
2022-08-03T08:37:28.287Z,29.46
2022-08-03T08:38:28.278Z,29.49
2022-08-03T08:39:28.250Z,29.51
2022-08-03T08:40:28.264Z,29.42
2022-08-03T08:41:32.081Z,29.43
2022-08-03T08:42:28.218Z,29.49
2022-08-03T08:43:28.200Z,29.58
2022-08-03T08:44:28.200Z,29.61
2022-08-03T08:45:28.188Z,29.64
2022-08-03T08:46:28.219Z,29.71
2022-08-03T08:47:28.158Z,29.83
2022-08-03T08:48:28.140Z,29.94
2022-08-03T08:49:28.231Z,29.98
2022-08-03T08:50:28.410Z,30.00
2022-08-03T08:51:54.915Z,30.05
2022-08-03T08:52:31.935Z,30.10
2022-08-03T08:53:28.079Z,30.20
2022-08-03T08:54:28.070Z,30.26
2022-08-03T08:55:28.082Z,30.23
2022-08-03T08:56:28.038Z,30.22
2022-08-03T08:57:42.357Z,30.27
2022-08-03T08:58:29.008Z,30.38
2022-08-03T08:59:49.117Z,30.49
2022-08-03T09:00:29.007Z,30.58
2022-08-03T09:01:27.991Z,30.67
2022-08-03T09:02:27.958Z,30.64
2022-08-03T09:03:30.567Z,30.65
2022-08-03T09:04:27.939Z,30.73
2022-08-03T09:05:53.911Z,30.84
2022-08-03T09:06:28.915Z,30.98
2022-08-03T09:07:27.908Z,31.13
2022-08-03T09:08:27.887Z,31.26
2022-08-03T09:10:04.679Z,31.36
2022-08-03T09:10:28.878Z,31.39
2022-08-03T09:11:54.433Z,31.47
2022-08-03T09:12:41.449Z,31.46
2022-08-03T09:13:28.820Z,31.46
2022-08-03T09:14:34.164Z,31.47
2022-08-03T09:15:28.878Z,31.46
2022-08-03T09:16:27.778Z,31.53
2022-08-03T09:17:27.780Z,31.56
2022-08-03T09:18:27.758Z,31.62
2022-08-03T09:19:27.759Z,31.63
2022-08-03T09:20:27.740Z,31.62
2022-08-03T09:21:32.626Z,31.58
2022-08-03T09:22:28.718Z,31.61
2022-08-03T09:23:51.419Z,31.57
2022-08-03T09:24:41.296Z,31.57
2022-08-03T09:25:28.719Z,31.62
2022-08-03T09:26:27.650Z,31.63
2022-08-03T09:27:27.638Z,31.65
2022-08-03T09:29:00.005Z,31.54
2022-08-03T09:29:28.629Z,31.57
2022-08-03T09:30:34.611Z,31.68
2022-08-03T09:31:28.600Z,31.76
2022-08-03T09:32:27.579Z,31.91
2022-08-03T09:33:27.570Z,32.03
2022-08-03T09:34:28.569Z,31.96
2022-08-03T09:35:51.598Z,31.73
2022-08-03T09:36:28.530Z,31.72
2022-08-03T09:38:12.123Z,31.81
2022-08-03T09:38:28.526Z,31.81
2022-08-03T09:39:41.561Z,31.95
2022-08-03T09:40:28.488Z,32.03
2022-08-03T09:41:27.459Z,32.01
2022-08-03T09:42:27.449Z,32.10
2022-08-03T09:43:27.448Z,32.08
2022-08-03T09:44:27.504Z,32.11
2022-08-03T09:45:27.510Z,32.10
2022-08-03T09:46:27.411Z,32.10
2022-08-03T09:47:28.387Z,32.18
2022-08-03T09:48:27.378Z,32.28
2022-08-03T09:49:27.405Z,32.41
2022-08-03T09:50:27.359Z,32.38
2022-08-03T09:52:28.834Z,32.37
2022-08-03T09:52:39.471Z,32.47
2022-08-03T09:53:28.317Z,32.60
2022-08-03T09:54:27.300Z,32.77
2022-08-03T09:56:35.490Z,32.87
2022-08-03T09:56:35.654Z,32.94
2022-08-03T09:57:28.269Z,32.97
2022-08-03T09:58:27.257Z,32.92
2022-08-03T09:59:27.241Z,32.88
2022-08-03T10:00:27.249Z,32.96
2022-08-03T10:01:27.250Z,33.04
2022-08-03T10:02:27.201Z,33.04
2022-08-03T10:03:27.190Z,32.99
2022-08-03T10:04:27.188Z,32.94
2022-08-03T10:05:27.250Z,32.77
2022-08-03T10:06:29.086Z,32.45
2022-08-03T10:07:27.229Z,32.33
2022-08-03T10:08:27.193Z,32.35
2022-08-03T10:09:27.181Z,32.21
2022-08-03T10:10:30.225Z,32.14
2022-08-03T10:11:27.090Z,32.21
2022-08-03T10:12:27.080Z,32.22
2022-08-03T10:13:27.073Z,32.40
2022-08-03T10:14:27.060Z,32.55
2022-08-03T10:16:23.486Z,32.65
2022-08-03T10:16:28.022Z,32.75
2022-08-03T10:17:27.021Z,32.87
2022-08-03T10:18:27.008Z,32.89
2022-08-03T10:19:26.990Z,32.96
2022-08-03T10:20:26.984Z,33.06
2022-08-03T10:21:26.971Z,33.26
2022-08-03T10:22:26.951Z,33.38
2022-08-03T10:23:27.907Z,33.50
2022-08-03T10:24:26.930Z,33.60
2022-08-03T10:25:33.341Z,33.49
2022-08-03T10:26:27.891Z,33.31
2022-08-03T10:27:26.879Z,33.31
2022-08-03T10:28:26.870Z,33.39
2022-08-03T10:29:26.865Z,33.50
2022-08-03T10:30:26.860Z,33.54
2022-08-03T10:31:26.840Z,33.65
2022-08-03T10:32:26.820Z,33.73
2022-08-03T10:33:51.614Z,33.87
2022-08-03T10:34:27.801Z,33.91
2022-08-03T10:35:26.803Z,33.91
2022-08-03T10:36:26.769Z,33.88
2022-08-03T10:37:26.761Z,33.76
2022-08-03T10:38:26.741Z,33.57
2022-08-03T10:39:26.741Z,33.60
2022-08-03T10:40:47.654Z,33.65
2022-08-03T10:41:27.720Z,33.78
2022-08-03T10:42:26.690Z,33.94
2022-08-03T10:43:26.693Z,34.08
2022-08-03T10:44:26.680Z,34.25
2022-08-03T10:45:26.673Z,34.46
2022-08-03T10:46:26.657Z,34.66
2022-08-03T10:47:26.643Z,34.73
2022-08-03T10:48:26.633Z,34.84
2022-08-03T10:49:34.959Z,34.88
2022-08-03T10:50:27.614Z,34.96
2022-08-03T10:51:26.582Z,35.03
2022-08-03T10:52:32.901Z,35.03
2022-08-03T10:53:27.561Z,34.99
2022-08-03T10:54:26.550Z,35.00
2022-08-03T10:55:26.551Z,35.07
2022-08-03T10:56:49.445Z,35.10
2022-08-03T10:57:27.522Z,35.19
2022-08-03T10:58:30.778Z,35.22
2022-08-03T10:59:27.934Z,35.26
2022-08-03T11:00:26.549Z,35.26
2022-08-03T11:01:26.462Z,35.37
2022-08-03T11:02:27.451Z,35.44
2022-08-03T11:03:26.435Z,35.28
2022-08-03T11:04:26.431Z,35.09
2022-08-03T11:05:26.432Z,35.02
2022-08-03T11:06:26.402Z,35.03
2022-08-03T11:07:26.392Z,35.03
2022-08-03T11:08:26.373Z,34.85
2022-08-03T11:09:26.359Z,34.77
2022-08-03T11:10:26.362Z,34.49
2022-08-03T11:11:26.345Z,34.44
2022-08-03T11:12:27.856Z,34.50
2022-08-03T11:13:26.302Z,34.58
2022-08-03T11:14:26.319Z,34.82
2022-08-03T11:15:26.297Z,35.07
2022-08-03T11:16:26.272Z,35.28
2022-08-03T11:17:26.262Z,35.52
2022-08-03T11:18:26.983Z,35.62
2022-08-03T11:19:27.693Z,35.82
2022-08-03T11:20:26.242Z,35.97
2022-08-03T11:21:30.135Z,35.99
2022-08-03T11:22:26.207Z,35.99
2022-08-03T11:24:03.240Z,36.03
2022-08-03T11:24:27.190Z,36.08
2022-08-03T11:25:53.893Z,36.08
2022-08-03T11:26:27.162Z,36.15
2022-08-03T11:27:26.133Z,36.09
2022-08-03T11:28:26.131Z,35.90
2022-08-03T11:29:26.112Z,35.85
2022-08-03T11:30:27.648Z,35.84
2022-08-03T11:31:49.320Z,35.85
2022-08-03T11:32:27.082Z,35.99
2022-08-03T11:33:26.073Z,36.05
2022-08-03T11:34:26.075Z,36.12
2022-08-03T11:35:26.053Z,36.22
2022-08-03T11:36:32.297Z,36.35
2022-08-03T11:37:31.512Z,36.39
2022-08-03T11:38:27.014Z,36.44
2022-08-03T11:39:25.992Z,36.53
2022-08-03T11:40:25.994Z,36.47
2022-08-03T11:41:26.037Z,36.31
2022-08-03T11:42:25.953Z,36.28
2022-08-03T11:43:30.663Z,36.37
2022-08-03T11:44:26.934Z,36.46
2022-08-03T11:45:25.922Z,36.47
2022-08-03T11:46:28.374Z,36.39
2022-08-03T11:47:25.894Z,36.46
2022-08-03T11:48:25.874Z,36.49
2022-08-03T11:49:25.910Z,36.64
2022-08-03T11:50:25.872Z,36.85
2022-08-03T11:51:25.882Z,36.91
2022-08-03T11:52:26.715Z,36.93
2022-08-03T11:53:25.821Z,36.87
2022-08-03T11:54:25.824Z,36.93
2022-08-03T11:55:30.283Z,37.15
2022-08-03T11:56:25.774Z,37.36
2022-08-03T11:59:00.900Z,37.60
2022-08-03T11:59:18.698Z,37.55
2022-08-03T11:59:26.744Z,37.67
2022-08-03T12:00:26.073Z,37.67
2022-08-03T12:01:25.726Z,37.57
2022-08-03T12:02:25.713Z,37.40
2022-08-03T12:03:25.747Z,37.31
2022-08-03T12:04:25.684Z,37.31
2022-08-03T12:05:25.695Z,37.40
2022-08-03T12:06:25.655Z,37.44
2022-08-03T12:08:03.128Z,37.46
2022-08-03T12:08:26.634Z,37.49
2022-08-03T12:09:25.632Z,37.51
2022-08-03T12:10:25.649Z,37.60
2022-08-03T12:11:25.597Z,37.75
2022-08-03T12:12:26.097Z,37.82
2022-08-03T12:14:08.891Z,37.97
2022-08-03T12:14:49.372Z,38.09
2022-08-03T12:15:26.575Z,38.09
2022-08-03T12:16:25.543Z,38.06
2022-08-03T12:17:25.525Z,38.06
2022-08-03T12:18:25.515Z,38.06
2022-08-03T12:19:25.506Z,38.04
2022-08-03T12:20:34.840Z,37.97
2022-08-03T12:21:26.485Z,37.85
2022-08-03T12:22:25.474Z,37.62
2022-08-03T12:23:25.466Z,37.49
2022-08-03T12:24:26.974Z,37.39
2022-08-03T12:25:25.798Z,37.47
2022-08-03T12:26:26.426Z,37.59
2022-08-03T12:27:25.422Z,37.70
2022-08-03T12:28:36.450Z,37.67
2022-08-03T12:29:26.395Z,37.62
2022-08-03T12:30:25.411Z,37.62
2022-08-03T12:31:25.365Z,37.56
2022-08-03T12:32:25.357Z,37.66
2022-08-03T12:33:25.375Z,37.82
2022-08-03T12:34:25.349Z,37.93
2022-08-03T12:35:26.336Z,37.88
2022-08-03T12:36:25.315Z,38.01
2022-08-03T12:37:25.921Z,37.93
2022-08-03T12:38:25.286Z,37.70
2022-08-03T12:39:25.287Z,37.51
2022-08-03T12:40:28.189Z,37.47
2022-08-03T12:41:25.257Z,37.28
2022-08-03T12:42:25.237Z,37.15
2022-08-03T12:43:25.239Z,37.20
2022-08-03T12:44:25.226Z,37.15
2022-08-03T12:45:25.226Z,37.09
2022-08-03T12:46:25.197Z,37.15
2022-08-03T12:47:25.186Z,37.25
2022-08-03T12:48:25.166Z,37.43
2022-08-03T12:49:25.201Z,37.55
2022-08-03T12:50:25.157Z,37.66
2022-08-03T12:51:25.139Z,37.64
2022-08-03T12:52:25.117Z,37.62